• Join FlightAware (Why Join?)
  • Login
  • US Flag 
10:34PM EDT


 

Airport Tracker/Info


-or-


 

Live Flight TrackerFlight Track Log ✈ AXM5243 ✈ 05-Jul-2013 ✈ WBGB / BTU - WMKK / KUL

Flight Track Log - Related Links

Times and Time Zones

All times are in EDT time to prevent confusion due to time zone crossing. See the AXM5243 flight status page for this flight to view local times or setup timezone preferences in your user account.

Time Position Orientation Groundspeed Altitude Reporting Facility
EDT Latitude Longitude Course Direction KTS MPH feet Rate Location/Type
08:03AM 2.9250 111.0640 261° West 455 524 31,400  Level FlightAware
08:04AM 2.9150 110.9940 262° West 455 524 31,400 1,320 Level FlightAware
08:05AM 2.8980 110.8800 262° West 451 519 33,300 1,800 Climbing FlightAware
08:05AM 2.8850 110.7980 261° West 451 519 34,000 1,740 Climbing FlightAware
08:06AM 2.8720 110.7140 261° West 419 482 35,700 1,560 Climbing FlightAware
08:07AM 2.8590 110.6310 261° West 420 483 36,300 540 Climbing FlightAware
08:07AM 2.8480 110.5560 262° West 428 493 36,500 600 Climbing FlightAware
08:08AM 2.8340 110.4660 261° West 423 487 37,200 540 Climbing FlightAware
08:09AM 2.8390 110.3580 273° West 431 496 37,500 360 Climbing FlightAware
08:10AM 2.8550 110.2800 282° West 433 498 37,800 360 Climbing FlightAware
08:11AM 2.8700 110.1960 280° West 439 505 38,000 120 Climbing FlightAware
08:11AM 2.8840 110.0950 278° West 450 518 38,000  Level FlightAware
08:12AM 2.8940 109.9930 276° West 464 534 38,000  Level FlightAware
08:13AM 2.9040 109.8970 276° West 473 544 38,000  Level FlightAware
08:14AM 2.9110 109.8080 275° West 473 544 38,000  Level FlightAware
08:14AM 2.9090 109.7240 269° West 472 543 38,000  Level FlightAware
08:15AM 2.8940 109.6300 261° West 473 544 38,000  Level FlightAware
08:16AM 2.8680 109.5050 258° West 471 542 38,000  Level FlightAware
08:17AM 2.8510 109.4210 259° West 472 543 38,000  Level FlightAware
08:17AM 2.8310 109.3250 258° West 472 543 38,000  Level FlightAware
08:18AM 2.8140 109.2400 259° West 472 543 38,000  Level FlightAware
08:19AM 2.7940 109.1450 258° West 473 544 38,000  Level FlightAware
08:19AM 2.7760 109.0600 258° West 474 545 38,000  Level FlightAware
08:20AM 2.7580 108.9700 259° West 476 548 38,000  Level FlightAware
08:21AM 2.7370 108.8690 258° West 477 549 38,000  Level FlightAware
08:22AM 2.7200 108.7860 258° West 478 550 38,000 60 Level FlightAware
08:22AM 2.7020 108.7030 258° West 477 549 38,100  Climbing FlightAware
08:23AM 2.6820 108.6060 258° West 474 545 38,000 -120 Descending FlightAware
08:24AM 2.6630 108.5120 259° West 473 544 38,000  Level FlightAware
08:24AM 2.6480 108.4420 258° West 472 543 38,000  Level FlightAware
08:25AM 2.6340 108.3790 257° West 472 543 38,000  Level FlightAware
08:26AM 2.6160 108.2920 258° West 472 543 38,000  Level FlightAware
08:26AM 2.6010 108.2210 258° West 472 543 38,000  Level FlightAware
08:27AM 2.5870 108.1530 258° West 472 543 38,000  Level FlightAware
08:28AM 2.5680 108.0660 258° West 472 543 38,000  Level FlightAware
08:28AM 2.5540 108.0010 258° West 472 543 38,000  Level FlightAware
08:29AM 2.5190 107.8200 259° West 470 541 38,000  Level FlightAware
08:30AM 2.4890 107.6770 258° West 474 545 38,000  Level FlightAware
08:31AM 2.4690 107.5820 258° West 474 545 38,100 60 Climbing FlightAware
08:32AM 2.4530 107.5070 258° West 474 545 38,100  Level FlightAware
08:32AM 2.4390 107.4410 258° West 474 545 38,100  Level FlightAware
08:33AM 2.4250 107.3760 258° West 474 545 38,100 -120 Level FlightAware
08:34AM 2.3980 107.2430 259° West 473 544 38,000 -120 Descending FlightAware
08:34AM 2.3850 107.1650 261° West 473 544 38,000  Level FlightAware
08:35AM 2.3720 107.0730 262° West 473 544 38,000  Level FlightAware
08:36AM 2.3630 107.0100 262° West 473 544 38,000  Level FlightAware
08:36AM 2.3510 106.9220 262° West 473 544 38,000  Level FlightAware
08:37AM 2.4540 106.7920 308° West 470 541 38,000  Level FlightAware
08:38AM 2.4770 106.7060 285° West 471 542 38,000  Level FlightAware
08:38AM 2.5040 106.6090 286° West 472 543 38,000  Level FlightAware
08:39AM 2.5260 106.5310 286° West 471 542 38,000  Level FlightAware
08:40AM 2.5450 106.4580 285° West 471 542 38,000  Level FlightAware
08:41AM 2.5680 106.3720 285° West 471 542 38,000  Level FlightAware
08:41AM 2.5860 106.3070 285° West 471 542 38,000  Level FlightAware
08:42AM 2.6260 106.1670 286° West 482 555 38,000  Level FlightAware
08:43AM 2.6500 106.0790 285° West 483 556 38,000 60 Level FlightAware
08:43AM 2.6750 105.9890 286° West 483 556 38,100 60 Climbing FlightAware
08:44AM 2.6980 105.9050 285° West 483 556 38,100 -120 Level FlightAware
08:45AM 2.7290 105.7950 286° West 478 550 38,000 -120 Descending FlightAware
08:46AM 2.7540 105.7050 286° West 475 547 38,000  Level FlightAware
08:46AM 2.7760 105.6250 285° West 474 545 38,000  Level FlightAware
08:47AM 2.7940 105.5560 285° West 473 544 38,000  Level FlightAware
08:48AM 2.8230 105.4520 286° West 474 545 38,000  Level FlightAware
08:48AM 2.8480 105.3610 285° West 475 547 38,000  Level FlightAware
08:49AM 2.8790 105.2480 285° West 475 547 38,000  Level FlightAware
08:50AM 2.9050 105.1580 286° West 476 548 38,000  Level FlightAware
08:51AM 2.9430 105.0150 285° West 476 548 38,000  Level FlightAware
08:52AM 2.9730 104.9040 285° West 476 548 38,000  Level FlightAware
08:53AM 2.9900 104.7900 278° West 480 552 38,000  Level FlightAware
08:53AM 2.9980 104.7180 276° West 480 552 38,000  Level FlightAware
08:54AM 3.0140 104.6050 278° West 477 549 38,000  Level FlightAware
08:55AM 3.0260 104.5130 277° West 476 548 38,000  Level FlightAware
08:56AM 3.0380 104.4210 277° West 476 548 38,000  Level FlightAware
08:56AM 3.0490 104.3380 278° West 476 548 38,000  Level FlightAware
08:57AM 3.0620 104.2280 277° West 476 548 38,000  Level FlightAware
08:58AM 3.0760 104.1290 278° West 477 549 38,000  Level FlightAware
08:58AM 3.0850 104.0560 277° West 477 549 38,000  Level FlightAware
08:59AM 3.1000 103.9440 278° West 477 549 38,000 -240 Level FlightAware
09:00AM 3.1150 103.8320 278° West 479 551 37,700 -480 Descending FlightAware
09:01AM 3.1240 103.7620 277° West 480 552 37,400 -300 Descending FlightAware
09:01AM 3.1320 103.6930 277° West 480 552 37,400 -1,920 Level FlightAware
09:02AM 3.1490 103.5660 278° West 426 490 34,600 -1,920 Descending FlightAware
09:03AM 3.1510 103.4860 271° West 423 487 34,100 -2,160 Descending FlightAware
09:04AM 3.1350 103.3800 261° West 419 482 31,200 -3,120 Descending FlightAware
09:04AM 3.1260 103.3090 263° West 418 481 29,800 -2,220 Descending FlightAware
09:05AM 3.1120 103.2070 262° West 415 478 27,900 -2,100 Descending FlightAware
09:06AM 3.1030 103.1360 263° West 403 464 26,700 -1,800 Descending FlightAware
09:07AM 3.0920 103.0530 262° West 394 453 25,400 -1,920 Descending FlightAware
09:07AM 3.0830 102.9880 262° West 389 448 24,200 -1,800 Descending FlightAware
09:08AM 3.0740 102.9200 262° West 373 429 23,200 -1,740 Descending FlightAware
09:09AM 3.0640 102.8450 262° West 367 422 21,800 -1,380 Descending FlightAware
09:09AM 3.0550 102.7780 262° West 338 389 21,300 -1,440 Descending FlightAware
09:10AM 3.0460 102.7140 262° West 342 394 19,900 -1,500 Descending FlightAware
09:11AM 3.0390 102.6610 262° West 320 368 19,400 -660 Descending FlightAware
09:11AM 3.0300 102.5950 262° West 283 326 19,000 -300 Descending FlightAware
09:12AM 3.0230 102.5420 262° West 261 300 19,000  Level FlightAware
09:13AM 3.0160 102.4880 263° West 261 300 19,000  Level FlightAware
09:13AM 3.0080 102.4640 252° West 266 306 19,000  Level FlightAware
09:13AM 2.9950 102.4520 223° Southwest 272 313 19,000  Level FlightAware
09:14AM 2.9730 102.4460 195° South 278 320 19,000  Level FlightAware
09:14AM 2.9340 102.4760 142° Southeast 288 331 19,000  Level FlightAware
09:15AM 2.9380 102.5300 86° East 287 330 19,000  Level FlightAware
09:16AM 2.9460 102.5850 82° East 288 331 19,000  Level FlightAware
09:16AM 2.9590 102.6230 71° East 284 327 19,000  Level FlightAware
09:17AM 2.9840 102.6360 27° Northeast 274 315 19,000  Level FlightAware
09:17AM 3.0160 102.6260 343° North 261 300 19,000  Level FlightAware
09:17AM 3.0300 102.6030 301° West 261 300 19,000  Level FlightAware
09:18AM 3.0260 102.5590 265° West 260 299 19,000  Level FlightAware
09:19AM 3.0190 102.5080 262° West 262 302 19,000  Level FlightAware
09:20AM 3.0120 102.4590 262° West 261 300 19,000 -1,620 Level FlightAware
09:20AM 2.9850 102.4430 211° Southwest 299 344 17,400 -5,160 Descending FlightAware
09:20AM 2.9680 102.4310 215° Southwest 310 357 16,600 -2,520 Descending FlightAware
09:21AM 2.9220 102.3850 225° Southwest 323 372 14,900 -1,620 Descending FlightAware
09:22AM 2.8740 102.3360 226° Southwest 298 343 14,100 -1,320 Descending FlightAware
09:22AM 2.8340 102.2940 226° Southwest 292 336 13,000 -1,680 Descending FlightAware
09:23AM 2.7860 102.2440 226° Southwest 292 336 11,600 -1,680 Descending FlightAware
09:24AM 2.7380 102.1950 226° Southwest 292 336 10,200 -1,440 Descending FlightAware
09:25AM 2.6960 102.1510 226° Southwest 281 323 9,200 -600 Descending FlightAware
09:26AM 2.6540 102.1070 226° Southwest 261 300 9,200  Level FlightAware
09:26AM 2.6270 102.0990 196° South 261 300 9,200  Level FlightAware
09:26AM 2.6040 102.0930 195° South 261 300 9,200  Level FlightAware
09:27AM 2.5800 102.0860 196° South 261 300 9,200  Level FlightAware
09:27AM 2.5560 102.0790 196° South 261 300 9,200  Level FlightAware
09:30AM 2.7107 101.7778 297° West  Level Estimated
09:31AM 2.7456 101.7099 297° West  Level Estimated
09:32AM 2.7456 101.7099 236° Southwest  Level Estimated
09:33AM 2.7456 101.7099 236° Southwest  Level Estimated
09:34AM 2.7456 101.7099 236° Southwest  Level Estimated
09:35AM 2.7456 101.7099 236° Southwest  Level Estimated
09:36AM 2.7456 101.7099 236° Southwest  Level Estimated
09:37AM 2.7456 101.7099 236° Southwest  Level Estimated
09:38AM 2.7456 101.7099 236° Southwest  Level Estimated
09:39AM 2.7456 101.7099 236° Southwest  Level Estimated
09:40AM 2.7456 101.7099 236° Southwest  Level Estimated
09:41AM 2.7456 101.7099 236° Southwest  Level Estimated